Terminal Aerodrome Forecast
Issued by NWS Riverton, WY

Home | Current Version | Previous Version | Text Only | Print | Product List | Glossary On
Versions: 1 2 3 4 5 6 7 8 9 10 11 12 13 14
750
FTUS45 KRIW 132339
TAFRIW
TAF
KRIW 132339Z 1400/1424 31028G38KT P6SM SCT110
     FM140200 32015KT P6SM FEW120 SCT200
     FM140700 26007KT P6SM SCT050 BKN120
     FM141400 23009KT P6SM SCT040 BKN090=

USA.gov is the U.S. government's official web portal to all federal, state and local government web resources and services.